Time;durP1;ratioP1;P1;durP2;ratioP2;P2;SDS_P1;SDS_P2;PMS_P1;PMS_P2;Temp;Humidity;BMP_temperature;BMP_pressure;BME280_temperature;BME280_humidity;BME280_pressure;Samples;Min_cycle;Max_cycle;Signal;HPM_P1;HPM_P2
2022/11/05 00:09:35;;;;;;;3.13;2.67;;;;;;;1.50;66.09;100013.47;5100027;27;20046;-71
2022/11/05 00:17:33;;;;;;;3.88;2.30;;;;;;;1.46;66.32;100015.34;5081452;27;20074;-71
2022/11/05 00:19:58;;;;;;;2.40;2.00;;;;;;;1.44;66.28;100010.13;5099881;27;20073;-70
2022/11/05 00:25:28;;;;;;;2.60;2.05;;;;;;;1.47;66.30;100022.28;5079894;27;20035;-70
2022/11/05 00:27:52;;;;;;;2.30;1.80;;;;;;;1.47;66.10;100024.09;5097890;27;20051;-67
2022/11/05 00:30:22;;;;;;;3.22;1.80;;;;;;;1.48;65.68;100016.13;5080082;27;20031;-73
2022/11/05 00:32:49;;;;;;;3.00;2.30;;;;;;;1.48;65.91;100024.03;5101586;27;20047;-72
2022/11/05 00:35:14;;;;;;;2.10;1.90;;;;;;;1.47;65.66;100022.28;5075695;27;20027;-71
2022/11/05 00:37:39;;;;;;;3.30;2.63;;;;;;;1.49;65.70;100022.25;5086366;27;20382;-71
2022/11/05 00:40:04;;;;;;;2.42;2.22;;;;;;;1.51;65.75;100026.56;5099257;27;20781;-71
2022/11/05 00:45:12;;;;;;;3.65;2.30;;;;;;;1.54;65.61;100031.75;5113107;27;20043;-70
2022/11/05 00:50:22;;;;;;;2.97;1.73;;;;;;;1.60;65.64;100035.94;5098508;27;20035;-71
2022/11/05 00:52:58;;;;;;;2.45;1.90;;;;;;;1.63;65.85;100056.91;5097878;27;20319;-70
2022/11/05 00:55:32;;;;;;;1.85;1.63;;;;;;;1.65;65.81;100047.19;5098518;27;20126;-69
2022/11/05 00:57:56;;;;;;;3.25;2.20;;;;;;;1.63;65.83;100039.34;5079491;27;20047;-70
2022/11/05 01:00:22;;;;;;;3.65;2.17;;;;;;;1.61;65.38;100042.94;5080428;27;20047;-70
2022/11/05 01:02:47;;;;;;;3.40;2.00;;;;;;;1.60;65.43;100038.56;5080055;27;20043;-69
2022/11/05 01:05:12;;;;;;;3.35;1.88;;;;;;;1.60;65.08;100052.56;5081300;27;20447;-69
2022/11/05 01:07:37;;;;;;;2.05;1.80;;;;;;;1.60;65.49;100055.19;5099790;27;20039;-70
2022/11/05 01:10:02;;;;;;;2.70;1.65;;;;;;;1.64;65.45;100056.84;5082514;27;20035;-69
2022/11/05 01:12:29;;;;;;;2.53;1.92;;;;;;;1.64;65.01;100048.97;5110004;27;20039;-70
2022/11/05 01:14:53;;;;;;;1.88;1.60;;;;;;;1.67;64.82;100058.53;5080358;27;20039;-70
2022/11/05 01:17:18;;;;;;;2.47;1.63;;;;;;;1.64;64.95;100059.47;5103455;27;20050;-69
2022/11/05 01:19:43;;;;;;;2.92;2.05;;;;;;;1.59;64.95;100057.88;5093118;27;20066;-73
2022/11/05 01:22:07;;;;;;;2.05;1.85;;;;;;;1.57;65.35;100063.19;5112594;27;20050;-69
2022/11/05 01:24:32;;;;;;;2.33;1.75;;;;;;;1.60;64.90;100073.59;5087493;27;20552;-70
2022/11/05 01:26:56;;;;;;;3.10;1.98;;;;;;;1.57;65.36;100071.09;5079661;27;20118;-71
2022/11/05 01:29:21;;;;;;;2.58;1.70;;;;;;;1.56;65.24;100063.25;5097236;27;20131;-69
2022/11/05 01:31:46;;;;;;;2.88;2.15;;;;;;;1.57;65.28;100068.47;5078005;27;20096;-71
2022/11/05 01:34:10;;;;;;;2.42;1.75;;;;;;;1.57;64.82;100070.22;5094009;27;20042;-71
2022/11/05 01:36:35;;;;;;;2.97;2.08;;;;;;;1.57;65.27;100068.47;5090115;27;20026;-73
2022/11/05 01:39:00;;;;;;;3.45;1.95;;;;;;;1.57;65.35;100070.22;5099866;27;20050;-76
2022/11/05 01:41:25;;;;;;;1.42;1.33;;;;;;;1.58;64.82;100064.06;5081863;27;20497;-69
2022/11/05 01:43:53;;;;;;;1.65;1.50;;;;;;;1.61;65.42;100074.47;5121892;27;20039;-68
2022/11/05 01:46:25;;;;;;;2.67;2.00;;;;;;;1.59;65.15;100071.88;5094527;27;20034;-69
2022/11/05 01:48:52;;;;;;;3.67;1.98;;;;;;;1.59;65.27;100074.50;5105322;27;20089;-70
2022/11/05 01:51:22;;;;;;;3.42;2.42;;;;;;;1.58;65.03;100074.56;5099245;27;20039;-69
2022/11/05 01:54:02;;;;;;;3.30;2.33;;;;;;;1.65;65.15;100086.63;5096417;27;20027;-69
2022/11/05 01:56:36;;;;;;;2.28;1.90;;;;;;;1.60;65.21;100078.00;5099149;27;20079;-67
2022/11/05 01:59:10;;;;;;;2.65;2.08;;;;;;;1.57;64.98;100086.84;5096000;27;20127;-68
2022/11/05 02:01:35;;;;;;;3.30;2.20;;;;;;;1.52;64.73;100087.88;5106647;27;20077;-66
2022/11/05 02:04:06;;;;;;;2.80;1.73;;;;;;;1.51;64.95;100091.38;5098420;27;20260;-68
2022/11/05 02:06:35;;;;;;;3.92;2.60;;;;;;;1.48;65.00;100091.47;5083949;27;20038;-69
2022/11/05 02:09:11;;;;;;;2.97;2.60;;;;;;;1.46;65.25;100102.03;5082619;27;20501;-65
2022/11/05 02:11:36;;;;;;;4.53;2.58;;;;;;;1.38;65.09;100098.75;5096445;27;20045;-70
2022/11/05 02:14:01;;;;;;;3.67;2.28;;;;;;;1.37;65.31;100097.88;5077632;27;20481;-73
2022/11/05 02:16:46;;;;;;;3.78;2.65;;;;;;;1.41;65.74;100096.03;5101745;27;20129;-68
2022/11/05 02:19:14;;;;;;;3.22;2.15;;;;;;;1.38;65.33;100089.09;5095935;27;20110;-68
2022/11/05 02:22:11;;;;;;;3.40;2.28;;;;;;;1.41;65.55;100094.28;5102665;27;20062;-68
2022/11/05 02:25:01;;;;;;;5.32;2.72;;;;;;;1.42;65.95;100089.88;5113566;27;20039;-70
2022/11/05 02:27:49;;;;;;;3.08;2.25;;;;;;;1.38;65.48;100098.75;5080542;27;20130;-70
2022/11/05 02:30:51;;;;;;;2.55;1.95;;;;;;;1.42;66.07;100096.00;5094634;27;20034;-71
2022/11/05 02:33:40;;;;;;;1.75;1.38;;;;;;;1.44;65.25;100103.84;5079256;27;20147;-71
2022/11/05 02:36:14;;;;;;;3.20;1.85;;;;;;;1.36;65.59;100098.78;5055375;27;20043;-70
2022/11/05 02:38:47;;;;;;;4.20;1.95;;;;;;;1.33;65.17;100109.38;5093138;27;20046;-71
2022/11/05 02:41:50;;;;;;;1.83;1.73;;;;;;;1.38;65.24;100107.47;5075308;27;20059;-71
2022/11/05 02:44:30;;;;;;;2.88;1.92;;;;;;;1.36;65.59;100113.66;5076543;27;20051;-70
2022/11/05 02:47:05;;;;;;;3.90;2.58;;;;;;;1.32;65.65;100112.91;5105649;27;20040;-69
2022/11/05 02:49:56;;;;;;;2.13;1.77;;;;;;;1.38;65.66;100118.00;5080536;27;20126;-70
2022/11/05 02:52:51;;;;;;;3.85;2.67;;;;;;;1.39;65.72;100122.34;5077816;27;20081;-70
2022/11/05 02:55:34;;;;;;;;;;;;;;;1.48;65.67;100118.59;5096278;27;20134;-67
2022/11/05 02:58:02;;;;;;;2.33;1.65;;;;;;;1.41;65.68;100125.81;5106702;27;19961;-73
2022/11/05 03:00:41;;;;;;;5.15;2.35;;;;;;;1.43;65.65;100128.38;5097004;27;20035;-75
2022/11/05 03:03:14;;;;;;;3.38;2.33;;;;;;;1.41;65.33;100130.19;5078641;27;20435;-73
2022/11/05 03:05:56;;;;;;;3.58;2.25;;;;;;;1.42;65.57;100131.91;5097758;27;20458;-73
2022/11/05 03:08:35;;;;;;;2.70;2.08;;;;;;;1.47;65.23;100140.53;5062092;27;20043;-74
2022/11/05 03:11:31;;;;;;;4.43;2.58;;;;;;;1.49;65.69;100140.47;5077684;27;20510;-71
2022/11/05 03:14:21;;;;;;;5.53;1.98;;;;;;;1.47;65.21;100131.81;5024348;28;20040;-73
2022/11/05 03:16:59;;;;;;;4.57;2.15;;;;;;;1.47;65.25;100132.63;5015764;28;20036;-69
2022/11/05 03:19:53;;;;;;;5.40;2.25;;;;;;;1.49;65.54;100136.09;5032369;28;20036;-67
2022/11/05 03:22:33;;;;;;;4.32;2.05;;;;;;;1.49;65.15;100143.97;5030799;28;20080;-71
2022/11/05 03:25:04;;;;;;;3.63;2.40;;;;;;;1.44;65.04;100138.88;5015702;28;20416;-69
2022/11/05 03:27:33;;;;;;;4.00;2.25;;;;;;;1.45;65.12;100148.47;5032872;28;20482;-73
2022/11/05 03:30:05;;;;;;;3.47;2.58;;;;;;;1.48;65.40;100146.63;5033183;28;20094;-69
2022/11/05 03:32:33;;;;;;;6.20;2.70;;;;;;;1.46;65.44;100144.06;4998429;28;20089;-70
2022/11/05 03:35:02;;;;;;;4.03;2.83;;;;;;;1.48;65.21;100150.13;5031543;28;20036;-70
2022/11/05 03:37:32;;;;;;;2.60;2.40;;;;;;;1.50;65.54;100145.69;5031126;28;20113;-71
2022/11/05 03:40:00;;;;;;;3.00;2.33;;;;;;;1.50;65.57;100155.34;5031882;28;20040;-69
2022/11/05 03:42:28;;;;;;;4.97;2.72;;;;;;;1.50;65.56;100155.34;5015595;28;20105;-69
2022/11/05 03:44:57;;;;;;;4.72;2.97;;;;;;;1.52;65.45;100161.44;5001419;28;20071;-69
2022/11/05 03:47:27;;;;;;;4.15;2.90;;;;;;;1.49;65.58;100154.47;5016567;28;20064;-71
2022/11/05 03:49:56;;;;;;;2.55;2.35;;;;;;;1.51;65.69;100162.31;5037525;27;20084;-70
2022/11/05 03:52:26;;;;;;;3.55;2.75;;;;;;;1.50;65.51;100166.72;5079015;27;20042;-71
2022/11/05 03:54:51;;;;;;;4.35;2.63;;;;;;;1.48;65.75;100163.25;5099667;27;20031;-71
2022/11/05 03:57:30;;;;;;;3.88;2.67;;;;;;;1.52;65.41;100170.19;5061085;27;20156;-70
2022/11/05 03:59:55;;;;;;;3.70;2.83;;;;;;;1.42;65.57;100177.44;5060243;27;20057;-68
2022/11/05 04:02:24;;;;;;;2.85;2.35;;;;;;;1.41;65.51;100178.34;5064689;27;20038;-68
2022/11/05 04:04:49;;;;;;;3.42;2.58;;;;;;;1.38;66.01;100183.66;5084200;27;20042;-69
2022/11/05 04:17:05;;;;;;;3.25;2.08;;;;;;;1.38;65.86;100194.16;5054998;28;20043;-72
2022/11/05 04:18:15;;;;;;;4.20;2.65;;;;;;;1.34;65.63;100189.91;5049981;28;20048;-69
2022/11/05 04:26:06;;;;;;;2.70;2.40;;;;;;;1.22;65.29;100187.59;5055077;28;20040;-73
2022/11/05 04:30:17;;;;;;;3.95;2.40;;;;;;;1.14;65.50;100189.53;5039569;28;20040;-76
2022/11/05 04:31:15;;;;;;;2.60;1.80;;;;;;;1.12;66.06;100186.09;5057650;28;20127;-76
2022/11/05 04:33:40;;;;;;;3.20;2.08;;;;;;;1.14;65.84;100186.91;5048377;28;20124;-76
2022/11/05 04:36:05;;;;;;;3.42;2.35;;;;;;;1.13;66.21;100181.72;5036428;28;20142;-78
2022/11/05 04:38:29;;;;;;;3.13;2.47;;;;;;;1.14;66.17;100181.66;5057005;28;20530;-76
2022/11/05 04:41:11;;;;;;;3.03;2.00;;;;;;;1.22;66.65;100184.09;5038311;28;20054;-73
2022/11/05 04:43:36;;;;;;;2.88;2.00;;;;;;;1.21;66.39;100185.00;5055276;28;20411;-73
2022/11/05 04:46:01;;;;;;;3.83;2.92;;;;;;;1.22;66.35;100186.72;5055394;28;20480;-74
2022/11/05 04:48:25;;;;;;;3.08;2.42;;;;;;;1.23;66.15;100194.56;5054902;28;20044;-73
2022/11/05 04:50:50;;;;;;;3.42;2.25;;;;;;;1.25;66.19;100197.13;5060891;27;20071;-75
2022/11/05 04:53:14;;;;;;;2.63;2.00;;;;;;;1.24;66.39;100200.69;5063739;27;20050;-77
2022/11/05 04:55:39;;;;;;;4.93;3.63;;;;;;;1.25;66.31;100195.38;5098888;27;20039;-73
2022/11/05 04:58:03;;;;;;;2.50;2.10;;;;;;;1.27;66.01;100201.47;5078701;27;20042;-74
2022/11/05 05:00:28;;;;;;;5.03;2.35;;;;;;;1.27;66.18;100208.47;5080282;27;20043;-73
2022/11/05 05:02:53;;;;;;;3.95;2.25;;;;;;;1.27;66.44;100204.09;5098152;27;20070;-74
2022/11/05 05:05:17;;;;;;;2.95;2.38;;;;;;;1.29;66.58;100202.28;5086671;27;20552;-73
2022/11/05 05:07:42;;;;;;;3.20;2.40;;;;;;;1.32;66.50;100211.88;5104803;27;20050;-73
2022/11/05 05:10:07;;;;;;;2.33;1.58;;;;;;;1.33;66.25;100217.09;5097485;27;20038;-72
2022/11/05 05:12:32;;;;;;;3.85;2.20;;;;;;;1.33;66.42;100210.97;5096211;27;20549;-76
2022/11/05 05:14:57;;;;;;;4.63;2.75;;;;;;;1.31;66.67;100218.00;5060455;27;20182;-76
2022/11/05 05:17:22;;;;;;;4.70;2.83;;;;;;;1.31;66.23;100216.25;5064433;27;20047;-76
2022/11/05 05:22:30;;;;;;;6.22;3.67;;;;;;;1.34;66.15;100224.06;5098660;27;20591;-76
2022/11/05 05:24:58;;;;;;;4.00;2.22;;;;;;;1.28;66.24;100223.34;5083476;27;20515;-75
2022/11/05 05:27:24;;;;;;;4.60;2.70;;;;;;;1.25;66.63;100229.50;5049102;27;20042;-73
2022/11/05 05:29:49;;;;;;;3.47;2.45;;;;;;;1.22;66.77;100232.25;5097218;27;20482;-72
2022/11/05 05:32:14;;;;;;;4.13;2.92;;;;;;;1.20;66.75;100226.16;5097263;27;20618;-72
2022/11/05 05:34:38;;;;;;;5.30;2.80;;;;;;;1.16;66.85;100234.13;5079585;27;20038;-73
2022/11/05 05:37:03;;;;;;;5.15;2.75;;;;;;;1.17;67.04;100241.09;5084994;27;20460;-73
2022/11/05 05:39:27;;;;;;;2.97;2.58;;;;;;;1.18;67.16;100234.97;5112152;27;20030;-74
2022/11/05 05:41:53;;;;;;;3.25;2.83;;;;;;;1.23;67.49;100243.59;5076823;27;20046;-73
2022/11/05 05:44:18;;;;;;;3.53;2.70;;;;;;;1.26;67.47;100240.88;5082153;27;20046;-72
2022/11/05 05:46:42;;;;;;;3.63;2.85;;;;;;;1.31;67.29;100249.53;5107650;27;20556;-71
2022/11/05 05:49:09;;;;;;;3.95;2.90;;;;;;;1.40;67.28;100254.56;5070384;27;20039;-72
2022/11/05 05:51:34;;;;;;;4.50;2.75;;;;;;;1.41;66.87;100256.28;5071762;27;20060;-71
2022/11/05 05:53:59;;;;;;;3.80;2.60;;;;;;;1.45;66.95;100255.31;5109196;27;20493;-72
2022/11/05 05:56:23;;;;;;;3.25;2.42;;;;;;;1.49;66.71;100263.97;5081083;27;20043;-71
2022/11/05 05:58:48;;;;;;;5.07;2.97;;;;;;;1.53;66.59;100263.88;5063523;27;20544;-73
2022/11/05 06:01:14;;;;;;;5.20;2.42;;;;;;;1.55;66.04;100269.94;5066684;27;20088;-73
2022/11/05 06:03:39;;;;;;;2.47;2.28;;;;;;;1.57;65.99;100270.78;5097872;27;20051;-72
2022/11/05 06:06:06;;;;;;;5.90;3.08;;;;;;;1.60;66.28;100262.81;5082677;27;20045;-72
2022/11/05 06:08:31;;;;;;;8.40;3.47;;;;;;;1.64;65.95;100271.47;5079175;27;20039;-73
2022/11/05 06:10:56;;;;;;;3.28;2.08;;;;;;;1.65;65.82;100266.19;5098787;27;20043;-72
2022/11/05 06:13:21;;;;;;;2.42;2.22;;;;;;;1.68;65.94;100260.88;5097324;27;20091;-74
2022/11/05 06:15:46;;;;;;;3.60;2.65;;;;;;;1.70;65.61;100260.78;5097315;27;20141;-72
2022/11/05 06:18:10;;;;;;;3.95;2.40;;;;;;;1.73;65.34;100268.63;5078142;27;20051;-73
2022/11/05 06:20:35;;;;;;;3.92;2.53;;;;;;;1.77;65.82;100267.66;5096657;27;20490;-73
2022/11/05 06:22:59;;;;;;;4.15;2.65;;;;;;;1.79;65.36;100279.00;5078292;27;20051;-75
2022/11/05 06:25:25;;;;;;;3.75;2.42;;;;;;;1.80;65.24;100278.94;5100126;27;20502;-72
2022/11/05 06:27:49;;;;;;;7.35;3.15;;;;;;;1.83;65.28;100273.59;5082016;27;20121;-72
2022/11/05 06:30:16;;;;;;;4.80;2.65;;;;;;;1.83;65.04;100281.47;5082671;27;20035;-73
2022/11/05 06:32:41;;;;;;;3.55;2.42;;;;;;;1.86;65.16;100275.28;5108323;27;20133;-71
2022/11/05 06:35:05;;;;;;;4.40;3.10;;;;;;;1.89;65.05;100282.25;5103915;27;20081;-73
2022/11/05 06:37:32;;;;;;;5.70;3.65;;;;;;;1.92;65.26;100269.84;5064745;27;20043;-74
2022/11/05 06:39:57;;;;;;;3.47;2.65;;;;;;;1.96;65.08;100275.91;5077519;27;20035;-73
2022/11/05 06:42:22;;;;;;;3.80;2.40;;;;;;;1.99;65.00;100276.69;5082607;27;20053;-73
2022/11/05 06:44:46;;;;;;;4.28;2.55;;;;;;;2.01;65.10;100271.41;5079310;27;20096;-73
2022/11/05 06:47:11;;;;;;;4.50;2.88;;;;;;;2.04;64.67;100284.44;5090710;27;20054;-73
2022/11/05 06:49:36;;;;;;;3.20;2.67;;;;;;;2.04;64.50;100282.69;5077759;27;20042;-72
2022/11/05 06:52:00;;;;;;;6.05;2.42;;;;;;;2.04;64.50;100285.31;5096583;27;20527;-73
2022/11/05 06:54:25;;;;;;;4.75;2.65;;;;;;;2.05;64.56;100287.03;5096450;27;20046;-72
2022/11/05 06:56:50;;;;;;;5.00;2.55;;;;;;;2.06;64.81;100295.78;5080701;27;20050;-73
2022/11/05 06:59:14;;;;;;;11.32;3.92;;;;;;;2.03;64.34;100303.78;5099153;27;20084;-73
2022/11/05 07:01:39;;;;;;;2.75;2.33;;;;;;;2.03;64.21;100309.03;5120009;27;20522;-72
2022/11/05 07:04:04;;;;;;;5.50;2.97;;;;;;;2.04;64.71;100300.22;5090983;27;20084;-74
2022/11/05 07:06:28;;;;;;;4.07;2.70;;;;;;;2.07;64.25;100302.78;5080887;27;20127;-72
2022/11/05 07:08:53;;;;;;;11.25;3.70;;;;;;;2.09;64.72;100303.59;5069132;27;20043;-72
2022/11/05 07:11:18;;;;;;;8.85;5.28;;;;;;;2.11;64.63;100328.09;5090843;27;20047;-71
2022/11/05 07:13:42;;;;;;;12.27;6.90;;;;;;;2.15;64.03;100306.94;5098367;27;20056;-71
2022/11/05 07:16:07;;;;;;;13.55;7.22;;;;;;;2.17;64.36;100318.28;5096754;27;20441;-71
2022/11/05 07:18:32;;;;;;;10.30;5.55;;;;;;;2.21;64.12;100308.53;5078064;28;20068;-71
2022/11/05 07:20:58;;;;;;;8.85;4.30;;;;;;;2.23;64.06;100312.00;5096361;27;20058;-69
2022/11/05 07:23:23;;;;;;;8.07;3.17;;;;;;;2.20;63.78;100314.72;5077852;27;20462;-70
2022/11/05 07:25:48;;;;;;;7.85;3.75;;;;;;;2.22;63.55;100317.31;5080048;28;20458;-70
2022/11/05 07:28:13;;;;;;;4.85;2.88;;;;;;;2.22;64.12;100323.44;5099596;27;20533;-73
2022/11/05 07:30:38;;;;;;;8.20;3.28;;;;;;;2.24;63.64;100336.53;5078057;28;20039;-72
2022/11/05 07:33:03;;;;;;;6.70;3.95;;;;;;;2.26;63.44;100327.69;5076829;28;20039;-71
2022/11/05 07:35:27;;;;;;;8.38;3.90;;;;;;;2.28;63.56;100333.78;5077950;27;20034;-71
2022/11/05 07:37:53;;;;;;;7.85;4.22;;;;;;;2.33;63.55;100334.53;5100067;27;20489;-72
2022/11/05 07:40:19;;;;;;;4.68;3.17;;;;;;;2.35;63.36;100334.50;5081251;27;20389;-72
2022/11/05 07:42:45;;;;;;;4.55;2.35;;;;;;;2.36;63.56;100341.47;5080761;27;20058;-72
2022/11/05 07:45:11;;;;;;;5.50;3.50;;;;;;;2.37;63.00;100344.03;5060269;27;20043;-72
2022/11/05 07:47:46;;;;;;;3.65;2.80;;;;;;;2.40;63.02;100343.97;5099457;27;20046;-72
2022/11/05 07:50:12;;;;;;;5.57;2.78;;;;;;;2.37;62.82;100346.66;5069568;27;20039;-72
2022/11/05 07:52:37;;;;;;;3.20;2.42;;;;;;;2.41;62.72;100345.69;5080829;27;20125;-71
2022/11/05 07:55:02;;;;;;;3.97;2.97;;;;;;;2.43;62.89;100343.91;5099045;27;20031;-71
2022/11/05 07:57:28;;;;;;;6.65;3.95;;;;;;;2.51;62.33;100348.94;5080502;27;20035;-72
2022/11/05 07:59:53;;;;;;;6.18;3.78;;;;;;;2.54;62.44;100352.34;5080251;27;20088;-72
2022/11/05 08:02:18;;;;;;;6.78;2.97;;;;;;;2.58;62.34;100353.16;5100146;27;20421;-72
2022/11/05 08:04:43;;;;;;;5.22;3.88;;;;;;;2.61;62.19;100354.81;5081122;27;20475;-73
2022/11/05 08:07:08;;;;;;;4.18;2.85;;;;;;;2.65;62.46;100351.19;5046299;27;20478;-72
2022/11/05 08:09:32;;;;;;;5.25;2.88;;;;;;;2.68;62.32;100359.00;5080545;27;20039;-71
2022/11/05 08:11:57;;;;;;;8.48;3.05;;;;;;;2.70;62.51;100359.84;5063168;27;20096;-69
2022/11/05 08:14:22;;;;;;;6.80;3.08;;;;;;;2.70;61.93;100359.84;5080504;27;20031;-70
2022/11/05 08:16:46;;;;;;;12.13;3.30;;;;;;;2.70;62.12;100351.94;5098370;27;20039;-69
2022/11/05 08:19:11;;;;;;;4.20;2.83;;;;;;;2.68;62.32;100345.84;5079683;27;20070;-69
2022/11/05 08:21:35;;;;;;;7.50;2.80;;;;;;;2.67;62.51;100349.38;5049365;28;20063;-70
2022/11/05 08:24:00;;;;;;;5.25;2.83;;;;;;;2.67;62.30;100352.88;5077694;28;20082;-70
2022/11/05 08:26:25;;;;;;;6.22;2.78;;;;;;;2.71;62.46;100353.69;5042458;28;20047;-70
2022/11/05 08:28:49;;;;;;;3.38;2.85;;;;;;;2.73;61.79;100350.06;5077405;28;20116;-69
2022/11/05 08:31:16;;;;;;;4.35;3.42;;;;;;;2.75;62.04;100368.47;5077899;28;20184;-69
2022/11/05 08:33:41;;;;;;;4.28;3.15;;;;;;;2.72;61.78;100364.13;5059510;28;20032;-68
2022/11/05 08:36:06;;;;;;;5.18;3.38;;;;;;;2.72;61.81;100369.41;5048082;28;20092;-69
2022/11/05 08:38:30;;;;;;;4.97;3.00;;;;;;;2.71;61.40;100372.09;5059210;28;20046;-71
2022/11/05 08:40:56;;;;;;;4.03;2.50;;;;;;;2.72;61.09;100368.53;5077667;28;20053;-70
2022/11/05 08:43:22;;;;;;;4.63;2.88;;;;;;;2.60;61.68;100369.75;5058841;28;20043;-68
2022/11/05 08:45:46;;;;;;;3.17;2.22;;;;;;;2.57;61.91;100366.34;5041083;28;20176;-71
2022/11/05 08:48:14;;;;;;;4.07;3.03;;;;;;;2.57;61.58;100369.84;5073099;28;20071;-70
2022/11/05 08:50:39;;;;;;;4.28;3.03;;;;;;;2.58;61.90;100373.34;5077671;28;20122;-70
2022/11/05 08:53:05;;;;;;;6.07;3.42;;;;;;;2.60;61.85;100368.91;5077489;28;20130;-69
2022/11/05 08:55:30;;;;;;;4.53;3.28;;;;;;;2.62;62.30;100369.69;5069920;27;20619;-70
2022/11/05 08:58:11;;;;;;;6.60;4.65;;;;;;;2.70;62.39;100373.88;5059397;28;20051;-73
2022/11/05 09:00:37;;;;;;;10.73;4.05;;;;;;;2.69;62.30;100363.38;5026218;28;20070;-73
2022/11/05 09:03:04;;;;;;;12.13;3.97;;;;;;;2.71;62.54;100362.41;5040416;28;20099;-75
2022/11/05 09:05:30;;;;;;;9.93;4.22;;;;;;;2.70;62.54;100360.72;5079169;28;20130;-74
2022/11/05 09:07:55;;;;;;;10.05;4.53;;;;;;;2.73;62.71;100357.09;5078783;28;20067;-75
2022/11/05 09:10:20;;;;;;;6.65;4.20;;;;;;;2.74;62.74;100359.69;5078936;28;20086;-74
2022/11/05 09:12:45;;;;;;;6.47;4.13;;;;;;;2.76;62.48;100363.16;5079069;28;20059;-75
2022/11/05 09:15:10;;;;;;;8.07;3.67;;;;;;;2.76;62.24;100370.19;5078818;28;20071;-74
2022/11/05 09:17:35;;;;;;;6.05;3.63;;;;;;;2.72;62.28;100368.53;5063398;28;20027;-74
2022/11/05 09:20:02;;;;;;;7.88;3.95;;;;;;;2.68;62.98;100365.16;5060730;28;20092;-74
2022/11/05 09:22:27;;;;;;;4.65;4.10;;;;;;;2.63;62.50;100368.78;5098460;27;20047;-74
2022/11/05 09:24:52;;;;;;;6.32;3.85;;;;;;;2.59;62.65;100367.16;5098823;27;20051;-75
2022/11/05 09:27:17;;;;;;;6.65;3.97;;;;;;;2.57;62.81;100363.72;5079674;27;20400;-74
2022/11/05 09:29:42;;;;;;;6.57;3.60;;;;;;;2.55;62.79;100369.88;5079511;27;20447;-74
2022/11/05 09:32:08;;;;;;;8.40;4.65;;;;;;;2.53;62.52;100374.31;5079883;27;20041;-75
2022/11/05 09:34:33;;;;;;;5.75;3.40;;;;;;;2.53;62.82;100368.19;5097691;27;20063;-71
2022/11/05 09:36:58;;;;;;;3.88;3.45;;;;;;;2.51;62.51;100370.00;5078976;27;20035;-70
2022/11/05 09:39:23;;;;;;;4.85;3.28;;;;;;;2.48;62.72;100370.94;5097527;27;20486;-71
2022/11/05 09:41:48;;;;;;;5.30;3.17;;;;;;;2.48;62.96;100380.63;5099030;27;20531;-70
2022/11/05 09:44:21;;;;;;;7.63;3.33;;;;;;;2.49;62.90;100380.56;5097318;27;20031;-70
2022/11/05 09:46:51;;;;;;;5.72;3.83;;;;;;;2.53;62.85;100374.31;5087435;27;20066;-70
2022/11/05 09:49:25;;;;;;;7.35;3.80;;;;;;;2.57;62.82;100375.09;5084063;27;20464;-69
2022/11/05 09:51:52;;;;;;;5.80;4.00;;;;;;;2.53;62.60;100371.69;5096874;27;20397;-69
2022/11/05 09:54:20;;;;;;;5.85;3.97;;;;;;;2.53;62.92;100378.72;5079834;27;20047;-74
2022/11/05 09:56:46;;;;;;;12.38;4.35;;;;;;;2.51;62.93;100391.91;5081167;27;20126;-73
2022/11/05 09:59:26;;;;;;;6.38;3.58;;;;;;;2.55;63.03;100388.31;5078700;27;20077;-74
2022/11/05 10:01:58;;;;;;;5.00;3.90;;;;;;;2.52;62.75;100393.63;5081303;27;20134;-76
2022/11/05 10:04:26;;;;;;;6.05;3.72;;;;;;;2.52;62.99;100400.66;5113312;27;20381;-76
2022/11/05 10:06:58;;;;;;;6.18;4.00;;;;;;;2.56;63.40;100389.16;5095571;27;20051;-76
2022/11/05 10:09:31;;;;;;;9.23;3.92;;;;;;;2.61;63.06;100391.66;5080622;27;20038;-74
2022/11/05 10:12:03;;;;;;;4.47;3.28;;;;;;;2.59;63.02;100391.72;5099347;27;20035;-76
2022/11/05 10:14:41;;;;;;;6.03;4.03;;;;;;;2.62;62.96;100403.91;5083531;27;20042;-79
2022/11/05 10:17:21;;;;;;;5.25;3.60;;;;;;;2.59;62.81;100404.03;5082310;27;20035;-77
2022/11/05 10:19:54;;;;;;;6.45;3.83;;;;;;;2.53;62.78;100405.91;5078392;27;20081;-78
2022/11/05 10:22:19;;;;;;;4.90;3.47;;;;;;;2.53;62.80;100402.41;5063683;27;20587;-77
2022/11/05 10:24:47;;;;;;;6.28;4.00;;;;;;;2.55;62.56;100408.50;5079461;27;20794;-78
2022/11/05 10:27:26;;;;;;;5.13;3.60;;;;;;;2.62;62.96;100409.19;5097353;27;20405;-78
2022/11/05 10:29:51;;;;;;;6.03;3.63;;;;;;;2.53;62.37;100419.06;5062861;27;20513;-77
2022/11/05 10:32:27;;;;;;;6.60;3.35;;;;;;;2.58;62.60;100405.78;5098477;27;20046;-77
2022/11/05 10:34:56;;;;;;;9.32;3.58;;;;;;;2.54;62.81;100412.03;5062750;27;20035;-74
2022/11/05 10:37:22;;;;;;;5.22;3.90;;;;;;;2.53;62.59;100408.53;5077888;27;20039;-75
2022/11/05 10:39:48;;;;;;;7.28;3.75;;;;;;;2.53;62.50;100405.91;5080927;27;20045;-74
2022/11/05 10:42:27;;;;;;;5.82;3.60;;;;;;;2.57;62.47;100400.56;5097252;27;20047;-73
2022/11/05 10:45:15;;;;;;;5.20;3.55;;;;;;;2.58;62.25;100391.75;5096206;27;20047;-74
2022/11/05 10:48:04;;;;;;;6.80;3.65;;;;;;;2.62;62.03;100401.28;5110473;27;20088;-75
2022/11/05 10:50:29;;;;;;;4.53;3.65;;;;;;;2.59;61.90;100393.50;5095879;27;20070;-75
2022/11/05 10:52:58;;;;;;;5.97;3.88;;;;;;;2.62;61.89;100406.53;5060254;27;20539;-73
2022/11/05 10:55:27;;;;;;;3.78;3.25;;;;;;;2.62;61.91;100404.78;5095784;27;20126;-71
2022/11/05 10:57:53;;;;;;;5.45;3.92;;;;;;;2.63;62.03;100400.38;5077304;27;20039;-72
2022/11/05 11:00:24;;;;;;;11.95;3.88;;;;;;;2.67;61.94;100404.66;5095432;27;20077;-72
2022/11/05 11:02:58;;;;;;;6.28;4.50;;;;;;;2.70;61.69;100407.22;5095345;27;20047;-70
2022/11/05 11:05:32;;;;;;;6.57;4.30;;;;;;;2.75;61.76;100415.84;5095577;27;20378;-72
2022/11/05 11:08:20;;;;;;;6.43;5.23;;;;;;;2.74;61.61;100420.25;5095605;27;20050;-71
2022/11/05 11:10:58;;;;;;;6.63;4.32;;;;;;;2.75;61.86;100421.97;5070221;27;20288;-72
2022/11/05 11:13:59;;;;;;;7.88;3.90;;;;;;;2.73;61.82;100422.91;5097498;27;20111;-71
2022/11/05 11:16:27;;;;;;;5.22;3.83;;;;;;;2.61;61.70;100423.25;5007272;28;20053;-71
2022/11/05 11:18:54;;;;;;;7.28;4.65;;;;;;;2.56;61.69;100428.66;5012543;28;20049;-72
2022/11/05 11:21:22;;;;;;;6.95;4.85;;;;;;;2.56;61.81;100426.00;4972917;28;20132;-71
2022/11/05 11:23:55;;;;;;;8.73;4.95;;;;;;;2.60;61.56;100419.75;4992364;28;20061;-73
2022/11/05 11:26:20;;;;;;;7.43;4.60;;;;;;;2.53;61.49;100434.84;4981287;28;20049;-73
2022/11/05 11:28:50;;;;;;;7.50;5.15;;;;;;;2.51;61.60;100423.50;4991499;28;20037;-73
2022/11/05 11:31:20;;;;;;;7.18;4.63;;;;;;;2.44;60.98;100429.84;4961063;28;20045;-71
2022/11/05 11:33:49;;;;;;;9.05;4.55;;;;;;;2.44;61.82;100437.72;4978381;28;20061;-72
2022/11/05 11:36:18;;;;;;;7.13;4.60;;;;;;;2.48;61.64;100441.16;4969004;28;20042;-73
2022/11/05 11:38:43;;;;;;;5.13;4.00;;;;;;;2.46;61.44;100435.06;4989790;28;20049;-72
2022/11/05 11:41:40;;;;;;;6.35;4.53;;;;;;;2.50;61.54;100440.19;4993139;28;20057;-72
2022/11/05 11:44:16;;;;;;;6.43;4.07;;;;;;;2.50;61.62;100444.59;4992962;28;20044;-69
2022/11/05 11:46:47;;;;;;;11.93;4.15;;;;;;;2.50;61.85;100442.81;4956869;28;20536;-71
2022/11/05 11:49:36;;;;;;;10.95;4.60;;;;;;;2.57;62.25;100433.00;4992940;28;20052;-70
2022/11/05 11:52:08;;;;;;;7.25;4.53;;;;;;;2.54;61.45;100433.94;4950150;28;20050;-71
2022/11/05 11:54:33;;;;;;;9.60;4.40;;;;;;;2.55;61.78;100435.69;5074319;28;20492;-68
2022/11/05 11:56:58;;;;;;;7.70;3.40;;;;;;;2.59;61.53;100440.88;5074288;28;20565;-68
2022/11/05 11:59:26;;;;;;;5.10;3.95;;;;;;;2.58;61.54;100436.50;5056115;28;20561;-70
2022/11/05 12:01:56;;;;;;;14.50;4.80;;;;;;;2.59;61.82;100441.75;5074695;28;20066;-73
2022/11/05 12:04:32;;;;;;;9.18;3.67;;;;;;;2.56;61.49;100447.06;5057052;28;20055;-73
2022/11/05 12:07:15;;;;;;;6.82;4.07;;;;;;;2.45;61.16;100444.72;5043615;28;20039;-76
2022/11/05 12:09:43;;;;;;;7.93;4.38;;;;;;;2.43;60.99;100449.16;5033607;28;20048;-74
2022/11/05 12:12:13;;;;;;;5.70;3.97;;;;;;;2.41;61.25;100445.69;5041058;28;20520;-77
2022/11/05 12:14:44;;;;;;;7.00;4.57;;;;;;;2.32;61.53;100445.94;5076207;28;20070;-77
2022/11/05 12:17:08;;;;;;;9.95;4.75;;;;;;;2.31;61.84;100454.72;5074493;28;20410;-73
2022/11/05 12:19:48;;;;;;;7.78;4.20;;;;;;;2.35;61.84;100451.13;5061522;28;20066;-70
2022/11/05 12:22:13;;;;;;;10.45;5.35;;;;;;;2.29;61.78;100448.63;5073135;28;20143;-71